Time;durP1;ratioP1;P1;durP2;ratioP2;P2;SDS_P1;SDS_P2;PMS_P1;PMS_P2;Temp;Humidity;BMP_temperature;BMP_pressure;BME280_temperature;BME280_humidity;BME280_pressure;Samples;Min_cycle;Max_cycle;Signal;HPM_P1;HPM_P2
2020/12/04 00:00:15;;;;;;;6.10;4.90;;;8.70;99.90;;;;;;5073239;28;20202;-80
2020/12/04 00:02:41;;;;;;;7.25;6.10;;;8.50;99.90;;;;;;5073072;28;20659;-79
2020/12/04 00:05:08;;;;;;;5.25;4.55;;;8.50;99.90;;;;;;5072924;28;20209;-80
2020/12/04 00:07:35;;;;;;;6.70;4.70;;;8.70;99.90;;;;;;5072850;28;20248;-79
2020/12/04 00:10:01;;;;;;;5.50;4.95;;;8.50;99.90;;;;;;5072920;28;20558;-80
2020/12/04 00:12:27;;;;;;;5.20;4.70;;;8.70;99.90;;;;;;5072967;28;20200;-80
2020/12/04 00:14:54;;;;;;;5.95;5.35;;;8.50;99.90;;;;;;5072874;28;20198;-80
2020/12/04 00:17:21;;;;;;;6.25;4.70;;;8.60;99.90;;;;;;5072745;28;20224;-81
2020/12/04 00:19:47;;;;;;;5.15;4.65;;;8.70;99.90;;;;;;5072695;28;20205;-79
2020/12/04 00:22:13;;;;;;;5.80;5.30;;;8.70;99.90;;;;;;5072904;28;20201;-81
2020/12/04 00:24:39;;;;;;;6.10;5.28;;;8.80;99.90;;;;;;5072588;28;20645;-80
2020/12/04 00:27:06;;;;;;;6.43;4.88;;;8.80;99.90;;;;;;5072521;28;20596;-79
2020/12/04 00:29:32;;;;;;;5.80;5.20;;;8.70;99.90;;;;;;5072769;28;20201;-80
2020/12/04 00:31:59;;;;;;;5.22;4.65;;;8.80;99.90;;;;;;5072962;28;20541;-80
2020/12/04 00:34:26;;;;;;;5.50;5.00;;;8.70;99.90;;;;;;5072689;28;20206;-80
2020/12/04 00:36:53;;;;;;;5.70;5.20;;;8.70;99.90;;;;;;5072699;28;20190;-80
2020/12/04 00:39:19;;;;;;;6.18;4.78;;;8.60;99.90;;;;;;5072556;28;20205;-82
2020/12/04 00:41:46;;;;;;;5.10;4.22;;;8.60;99.90;;;;;;5072634;28;20200;-80
2020/12/04 00:44:12;;;;;;;4.60;3.85;;;8.60;99.90;;;;;;5072373;28;20647;-82
2020/12/04 00:46:39;;;;;;;6.10;5.10;;;8.70;99.90;;;;;;5072573;28;20226;-80
2020/12/04 00:49:05;;;;;;;6.78;5.38;;;8.60;99.90;;;;;;5072455;28;20194;-80
2020/12/04 00:51:33;;;;;;;6.10;5.38;;;8.70;99.90;;;;;;5072758;28;20190;-80
2020/12/04 00:53:59;;;;;;;4.95;4.25;;;8.60;99.90;;;;;;5075759;28;20205;-80
2020/12/04 00:56:32;;;;;;;5.45;4.45;;;8.50;99.90;;;;;;5076068;28;20654;-80
2020/12/04 00:58:58;;;;;;;4.63;4.22;;;8.50;99.90;;;;;;5075967;28;20684;-80
2020/12/04 01:01:25;;;;;;;5.20;4.70;;;8.50;99.90;;;;;;5076140;28;20205;-80
2020/12/04 01:03:51;;;;;;;6.07;4.78;;;8.50;99.90;;;;;;5075973;28;20198;-80
2020/12/04 01:06:17;;;;;;;6.07;4.47;;;8.50;99.90;;;;;;5075851;28;20225;-84
2020/12/04 01:08:45;;;;;;;5.28;4.40;;;8.40;99.90;;;;;;5075978;28;20552;-80
2020/12/04 01:11:11;;;;;;;4.32;3.92;;;8.40;99.90;;;;;;5075831;28;20220;-80
2020/12/04 01:13:38;;;;;;;5.47;4.30;;;8.30;99.90;;;;;;5075834;28;20291;-80
2020/12/04 01:16:07;;;;;;;5.78;5.22;;;8.30;99.90;;;;;;5075708;28;20228;-81
2020/12/04 01:18:33;;;;;;;5.32;4.80;;;8.30;99.90;;;;;;5075627;28;20206;-80
2020/12/04 01:21:00;;;;;;;4.55;4.13;;;8.10;99.90;;;;;;5075686;28;20201;-80
2020/12/04 01:23:26;;;;;;;4.32;3.92;;;8.20;99.90;;;;;;5075502;28;20190;-81
2020/12/04 01:25:53;;;;;;;4.95;4.53;;;8.30;99.90;;;;;;5075609;28;20556;-82
2020/12/04 01:28:19;;;;;;;5.68;4.57;;;8.40;99.90;;;;;;5075562;28;20195;-82
2020/12/04 01:30:46;;;;;;;5.28;4.78;;;8.50;99.90;;;;;;5075589;28;20209;-82
2020/12/04 01:33:12;;;;;;;5.85;5.00;;;8.40;99.90;;;;;;5075577;28;20221;-82
2020/12/04 01:35:38;;;;;;;5.60;4.80;;;8.40;99.90;;;;;;5075440;28;20197;-83
2020/12/04 01:38:04;;;;;;;5.07;4.40;;;8.40;99.90;;;;;;5075432;28;20645;-82
2020/12/04 01:40:33;;;;;;;5.60;4.10;;;8.40;99.90;;;;;;5075508;28;20190;-82
2020/12/04 01:43:00;;;;;;;5.60;4.85;;;8.50;99.90;;;;;;5075452;28;20289;-82
2020/12/04 01:45:26;;;;;;;5.05;4.55;;;8.50;99.90;;;;;;5075074;28;20233;-82
2020/12/04 01:47:53;;;;;;;9.57;4.25;;;8.40;99.90;;;;;;5075098;28;20224;-82
2020/12/04 01:50:20;;;;;;;6.60;5.90;;;8.30;99.90;;;;;;5075233;28;20194;-82
2020/12/04 01:52:49;;;;;;;5.32;4.32;;;8.40;99.90;;;;;;5075323;28;20202;-82
2020/12/04 01:55:15;;;;;;;6.13;5.18;;;8.50;99.90;;;;;;5075185;28;20198;-82
2020/12/04 01:57:44;;;;;;;5.88;4.57;;;8.40;99.90;;;;;;5074998;28;20208;-82
2020/12/04 02:00:11;;;;;;;4.80;4.13;;;8.40;99.90;;;;;;5074870;28;20297;-82
2020/12/04 02:02:38;;;;;;;6.32;4.82;;;8.30;99.90;;;;;;5075077;28;20197;-82
2020/12/04 02:05:04;;;;;;;4.85;4.30;;;8.10;99.90;;;;;;5075096;28;20190;-83
2020/12/04 02:07:39;;;;;;;5.60;5.00;;;8.20;99.90;;;;;;5074613;28;20226;-82
2020/12/04 02:10:13;;;;;;;6.00;5.40;;;8.30;99.90;;;;;;5074916;28;20226;-83
2020/12/04 02:12:40;;;;;;;5.18;4.78;;;8.40;99.90;;;;;;5074786;28;20197;-83
2020/12/04 02:15:08;;;;;;;5.63;5.03;;;8.40;99.90;;;;;;5074838;28;20232;-83
2020/12/04 02:17:36;;;;;;;4.50;4.07;;;8.30;99.90;;;;;;5074514;28;20673;-83
2020/12/04 02:20:04;;;;;;;5.65;4.68;;;8.20;99.90;;;;;;5074573;28;20204;-83
2020/12/04 02:22:35;;;;;;;5.93;3.70;;;8.20;99.90;;;;;;5074712;28;20193;-83
2020/12/04 02:25:02;;;;;;;6.07;4.65;;;8.40;99.90;;;;;;5074685;28;20198;-83
2020/12/04 02:27:29;;;;;;;5.47;3.75;;;8.30;99.90;;;;;;5074389;28;20244;-83
2020/12/04 02:29:55;;;;;;;5.05;4.28;;;8.40;99.90;;;;;;5074420;28;20201;-82
2020/12/04 02:32:21;;;;;;;4.28;3.88;;;8.30;99.90;;;;;;5074472;28;20198;-82
2020/12/04 02:34:48;;;;;;;7.30;4.10;;;8.40;99.90;;;;;;5074425;28;20585;-82
2020/12/04 02:37:14;;;;;;;4.20;3.85;;;8.50;99.90;;;;;;5074587;28;20191;-83
2020/12/04 02:39:41;;;;;;;6.72;4.30;;;8.40;99.90;;;;;;5074101;28;20191;-82
2020/12/04 02:42:08;;;;;;;4.20;3.88;;;8.40;99.90;;;;;;5074431;28;20190;-83
2020/12/04 02:44:34;;;;;;;4.95;3.75;;;8.40;99.90;;;;;;5073943;28;20233;-83
2020/12/04 02:47:00;;;;;;;5.65;4.10;;;8.40;99.90;;;;;;5074024;28;20236;-83
2020/12/04 02:49:27;;;;;;;4.70;4.15;;;8.60;99.90;;;;;;5073976;28;20190;-83
2020/12/04 02:51:53;;;;;;;4.57;3.60;;;8.50;99.90;;;;;;5074293;28;20545;-83
2020/12/04 02:54:20;;;;;;;5.45;4.20;;;8.50;99.90;;;;;;5074246;28;20555;-83
2020/12/04 02:56:47;;;;;;;5.82;5.03;;;8.70;99.90;;;;;;5073882;28;20205;-83
2020/12/04 02:59:13;;;;;;;4.30;3.75;;;8.60;99.90;;;;;;5074080;28;20194;-83
2020/12/04 03:01:40;;;;;;;5.13;4.40;;;8.60;99.90;;;;;;5073862;28;20190;-82
2020/12/04 03:04:06;;;;;;;4.65;4.25;;;8.50;99.90;;;;;;5073841;28;20194;-83
2020/12/04 03:06:32;;;;;;;5.60;4.45;;;8.50;99.90;;;;;;5073774;28;20226;-83
2020/12/04 03:08:59;;;;;;;4.75;4.22;;;8.50;99.90;;;;;;5073750;28;20251;-83
2020/12/04 03:11:25;;;;;;;4.43;3.92;;;8.50;99.90;;;;;;5073854;28;20227;-83
2020/12/04 03:13:52;;;;;;;3.67;3.38;;;8.50;99.90;;;;;;5073671;28;20194;-83
2020/12/04 03:16:19;;;;;;;3.30;3.00;;;8.50;99.90;;;;;;5073316;28;20221;-83
2020/12/04 03:18:45;;;;;;;4.00;3.45;;;8.40;99.90;;;;;;5073559;28;20194;-83
2020/12/04 03:21:12;;;;;;;4.13;3.72;;;8.50;99.90;;;;;;5073598;28;20197;-83
2020/12/04 03:23:38;;;;;;;4.15;3.40;;;8.60;99.90;;;;;;5073580;28;20195;-83
2020/12/04 03:26:04;;;;;;;3.45;3.15;;;8.60;99.90;;;;;;5073652;28;20527;-83
2020/12/04 03:28:31;;;;;;;4.05;3.45;;;8.60;99.90;;;;;;5073272;28;20201;-83
2020/12/04 03:30:59;;;;;;;3.20;2.90;;;8.60;99.90;;;;;;5073406;28;20198;-83
2020/12/04 03:33:25;;;;;;;5.10;3.10;;;8.70;99.90;;;;;;5073477;28;20545;-83
2020/12/04 03:35:52;;;;;;;3.92;3.28;;;8.60;99.90;;;;;;5073533;28;20194;-83
2020/12/04 03:38:18;;;;;;;3.25;2.95;;;8.40;99.90;;;;;;5073780;28;20220;-83
2020/12/04 03:40:44;;;;;;;3.75;3.05;;;8.50;99.90;;;;;;5073480;28;20194;-82
2020/12/04 03:43:11;;;;;;;2.97;2.78;;;8.70;99.90;;;;;;5073233;28;20201;-82
2020/12/04 03:45:37;;;;;;;3.83;3.33;;;8.60;99.90;;;;;;5072871;28;20594;-82
2020/12/04 03:48:04;;;;;;;3.65;2.88;;;8.60;99.90;;;;;;5073080;28;20226;-83
2020/12/04 03:50:30;;;;;;;3.63;3.20;;;8.70;99.90;;;;;;5073276;28;20194;-83
2020/12/04 03:52:57;;;;;;;3.15;2.50;;;8.60;99.90;;;;;;5073117;28;20190;-82
2020/12/04 03:55:23;;;;;;;3.38;3.08;;;8.50;99.90;;;;;;5073408;28;20194;-83
2020/12/04 03:57:49;;;;;;;2.97;2.78;;;8.60;99.90;;;;;;5073327;28;20704;-82
2020/12/04 04:00:16;;;;;;;2.53;2.33;;;8.60;99.90;;;;;;5073444;28;20194;-82
2020/12/04 04:02:42;;;;;;;2.53;2.33;;;8.70;99.90;;;;;;5073094;28;20194;-82
2020/12/04 04:05:09;;;;;;;4.20;3.22;;;8.60;99.90;;;;;;5073069;28;20664;-82
2020/12/04 04:07:35;;;;;;;3.88;2.90;;;8.70;99.90;;;;;;5072921;28;20684;-82
2020/12/04 04:10:02;;;;;;;7.50;2.65;;;8.60;99.90;;;;;;5073199;28;20202;-82
2020/12/04 04:12:28;;;;;;;9.63;2.67;;;8.80;99.90;;;;;;5072986;28;20676;-82
2020/12/04 04:14:54;;;;;;;5.93;2.67;;;9.00;99.90;;;;;;5072988;28;20216;-82
2020/12/04 04:17:21;;;;;;;2.85;2.30;;;8.90;99.90;;;;;;5072998;28;20225;-82
2020/12/04 04:19:47;;;;;;;2.53;2.33;;;9.00;99.90;;;;;;5073026;28;20683;-82
2020/12/04 04:22:14;;;;;;;2.80;2.35;;;9.00;99.90;;;;;;5072924;28;20203;-82
2020/12/04 04:24:40;;;;;;;2.60;2.40;;;8.90;99.90;;;;;;5072930;28;20267;-82
2020/12/04 04:27:07;;;;;;;2.13;1.92;;;8.90;99.90;;;;;;5073451;28;20236;-82
2020/12/04 04:29:33;;;;;;;2.90;2.58;;;8.70;99.90;;;;;;5076620;28;20547;-82
2020/12/04 04:31:59;;;;;;;2.92;2.63;;;8.70;99.90;;;;;;5076664;28;20194;-82
2020/12/04 04:34:26;;;;;;;4.40;3.35;;;8.80;99.90;;;;;;5076690;28;20190;-82
2020/12/04 04:36:52;;;;;;;3.78;3.05;;;8.80;99.90;;;;;;5076625;28;20204;-82
2020/12/04 04:39:19;;;;;;;3.30;3.00;;;8.90;99.90;;;;;;5076725;28;20193;-82
2020/12/04 04:41:45;;;;;;;3.05;2.58;;;8.80;99.90;;;;;;5076767;28;20200;-82
2020/12/04 04:44:13;;;;;;;3.78;3.30;;;8.90;99.90;;;;;;5076396;28;20674;-82
2020/12/04 04:46:44;;;;;;;3.45;2.50;;;8.90;99.90;;;;;;5076433;28;20230;-84
2020/12/04 04:49:13;;;;;;;3.25;2.70;;;8.80;99.90;;;;;;5076449;28;20327;-83
2020/12/04 04:51:42;;;;;;;3.10;2.90;;;8.70;99.90;;;;;;5076476;28;20194;-83
2020/12/04 04:54:10;;;;;;;3.28;2.97;;;8.70;99.90;;;;;;5076307;28;20198;-83
2020/12/04 04:56:37;;;;;;;7.57;2.67;;;8.60;99.90;;;;;;5076334;28;20206;-83
2020/12/04 04:59:06;;;;;;;5.18;2.95;;;8.50;99.90;;;;;;5076424;28;20212;-83
2020/12/04 05:01:33;;;;;;;3.10;2.85;;;8.40;99.90;;;;;;5076427;28;20227;-83
2020/12/04 05:04:00;;;;;;;3.10;2.80;;;8.20;99.90;;;;;;5076088;28;20191;-83
2020/12/04 05:06:34;;;;;;;3.25;2.50;;;8.20;99.90;;;;;;5076241;28;20653;-82
2020/12/04 05:09:01;;;;;;;3.25;2.95;;;8.20;99.90;;;;;;5075941;28;20202;-82
2020/12/04 05:11:28;;;;;;;4.63;3.30;;;8.30;99.90;;;;;;5075910;28;20200;-82
2020/12/04 05:14:15;;;;;;;3.22;2.92;;;8.50;99.90;;;;;;5076072;28;20198;-82
2020/12/04 05:16:43;;;;;;;3.05;2.75;;;8.60;99.90;;;;;;5075765;28;20221;-82
2020/12/04 05:19:09;;;;;;;3.60;3.30;;;8.50;99.90;;;;;;5075758;28;20198;-82
2020/12/04 05:21:37;;;;;;;4.20;3.00;;;8.50;99.90;;;;;;5075633;28;20634;-83
2020/12/04 05:24:04;;;;;;;3.95;3.05;;;8.50;99.90;;;;;;5075590;28;20292;-83
2020/12/04 05:26:32;;;;;;;3.55;3.25;;;8.60;99.90;;;;;;5075569;28;20214;-83
2020/12/04 05:28:58;;;;;;;3.80;3.35;;;8.50;99.90;;;;;;5075413;28;20242;-82
2020/12/04 05:31:30;;;;;;;3.22;2.90;;;8.60;99.90;;;;;;5075580;28;20205;-81
2020/12/04 05:33:58;;;;;;;4.13;3.25;;;8.50;99.90;;;;;;5075553;28;20198;-82
2020/12/04 05:36:29;;;;;;;3.50;3.20;;;8.60;99.90;;;;;;5075460;28;20190;-82
2020/12/04 05:38:56;;;;;;;2.92;2.72;;;8.60;99.90;;;;;;5075230;28;20664;-82
2020/12/04 05:41:23;;;;;;;3.70;3.30;;;8.70;99.90;;;;;;5075468;28;20586;-82
2020/12/04 05:43:50;;;;;;;3.58;3.15;;;8.80;99.90;;;;;;5075245;28;20198;-82
2020/12/04 05:46:19;;;;;;;3.40;3.10;;;8.90;99.90;;;;;;5074873;28;20222;-82
2020/12/04 05:48:57;;;;;;;3.25;2.75;;;9.00;99.90;;;;;;5075165;28;20663;-82
2020/12/04 05:51:28;;;;;;;2.67;2.47;;;8.90;99.90;;;;;;5075348;28;20194;-82
2020/12/04 05:53:55;;;;;;;3.17;2.75;;;8.90;99.90;;;;;;5075099;28;20191;-82
2020/12/04 05:56:22;;;;;;;3.53;3.20;;;8.90;99.90;;;;;;5075082;28;20199;-83
2020/12/04 05:58:53;;;;;;;3.15;2.85;;;9.00;99.90;;;;;;5075147;28;20221;-82
2020/12/04 06:01:20;;;;;;;3.05;2.75;;;9.20;99.90;;;;;;5075018;28;20194;-81
2020/12/04 06:03:50;;;;;;;5.15;3.05;;;9.10;99.90;;;;;;5074961;28;20195;-82
2020/12/04 06:06:24;;;;;;;3.05;2.65;;;9.20;99.90;;;;;;5074727;28;20194;-82
2020/12/04 06:08:51;;;;;;;3.10;2.55;;;9.20;99.90;;;;;;5074669;28;20567;-82
2020/12/04 06:11:18;;;;;;;3.25;2.95;;;9.20;99.90;;;;;;5074646;28;20194;-82
2020/12/04 06:13:45;;;;;;;2.85;2.65;;;9.20;99.90;;;;;;5074847;28;20213;-82
2020/12/04 06:16:12;;;;;;;3.05;2.78;;;9.20;99.90;;;;;;5074564;28;20222;-81
2020/12/04 06:18:39;;;;;;;2.90;2.58;;;9.10;99.90;;;;;;5074504;28;20198;-82
2020/12/04 06:21:05;;;;;;;3.65;3.20;;;9.20;99.90;;;;;;5074581;28;20207;-82
2020/12/04 06:23:33;;;;;;;4.75;4.30;;;9.20;99.90;;;;;;5074476;28;20673;-82
2020/12/04 06:26:05;;;;;;;2.78;2.55;;;9.10;99.90;;;;;;5074372;28;20191;-82
2020/12/04 06:28:33;;;;;;;2.67;2.47;;;9.20;99.90;;;;;;5074186;28;20314;-82
2020/12/04 06:31:09;;;;;;;2.65;2.40;;;9.10;99.90;;;;;;5074295;28;20260;-81
2020/12/04 06:33:39;;;;;;;2.60;2.40;;;9.10;99.90;;;;;;5074235;28;20196;-81
2020/12/04 06:36:06;;;;;;;3.35;3.03;;;9.10;99.90;;;;;;5074010;28;20194;-82
2020/12/04 06:38:45;;;;;;;2.92;2.72;;;9.10;99.90;;;;;;5074133;28;20665;-81
2020/12/04 06:41:32;;;;;;;2.97;2.10;;;9.20;99.90;;;;;;5074469;28;20198;-82
2020/12/04 06:44:00;;;;;;;2.70;2.22;;;9.10;99.90;;;;;;5074164;28;20234;-82
2020/12/04 06:46:38;;;;;;;3.60;3.20;;;9.00;99.90;;;;;;5073894;28;20222;-81
2020/12/04 06:49:22;;;;;;;3.70;2.90;;;9.20;99.90;;;;;;5074059;28;20198;-82
2020/12/04 06:51:57;;;;;;;2.63;2.38;;;9.40;99.90;;;;;;5073739;28;20201;-82
2020/12/04 06:54:25;;;;;;;2.13;1.92;;;9.40;99.90;;;;;;5074373;28;20525;-81
2020/12/04 06:56:52;;;;;;;2.30;2.10;;;9.50;99.90;;;;;;5073771;28;20209;-82
2020/12/04 06:59:22;;;;;;;2.53;2.33;;;9.60;99.90;;;;;;5073881;28;20200;-82
2020/12/04 07:01:48;;;;;;;1.95;1.85;;;9.60;99.90;;;;;;5073677;28;20243;-81
2020/12/04 07:04:16;;;;;;;2.42;2.22;;;9.60;99.90;;;;;;5073410;28;20194;-81
2020/12/04 07:06:42;;;;;;;3.65;2.45;;;9.50;99.90;;;;;;5073329;28;20264;-81
2020/12/04 07:09:09;;;;;;;2.70;2.50;;;9.50;99.90;;;;;;5073535;28;20201;-83
2020/12/04 07:11:36;;;;;;;2.30;2.10;;;9.40;99.90;;;;;;5073565;28;20285;-81
2020/12/04 07:14:03;;;;;;;2.67;2.05;;;9.40;99.90;;;;;;5073547;28;20202;-81
2020/12/04 07:16:29;;;;;;;2.10;1.90;;;9.30;99.90;;;;;;5073436;28;20267;-81
2020/12/04 07:18:56;;;;;;;2.40;1.92;;;9.30;99.90;;;;;;5073539;28;20194;-81
2020/12/04 07:21:23;;;;;;;3.40;2.00;;;9.40;99.90;;;;;;5073439;28;20233;-83
2020/12/04 07:23:51;;;;;;;2.50;2.10;;;9.30;99.90;;;;;;5073460;28;20194;-81
2020/12/04 07:26:19;;;;;;;2.63;1.80;;;9.30;99.90;;;;;;5073441;28;20202;-81
2020/12/04 07:28:47;;;;;;;2.22;2.03;;;9.50;99.90;;;;;;5073229;28;20228;-82
2020/12/04 07:31:18;;;;;;;2.70;1.95;;;9.60;99.90;;;;;;5073399;28;20202;-81
2020/12/04 07:33:52;;;;;;;2.95;1.90;;;9.60;99.90;;;;;;5073260;28;20194;-82
2020/12/04 07:36:18;;;;;;;2.13;2.00;;;9.60;99.90;;;;;;5073279;28;20205;-81
2020/12/04 07:38:55;;;;;;;2.83;2.53;;;9.60;99.90;;;;;;5073359;28;20204;-81
2020/12/04 07:41:29;;;;;;;2.25;2.08;;;9.40;99.90;;;;;;5073587;28;20194;-82
2020/12/04 07:44:01;;;;;;;2.30;2.00;;;9.40;99.90;;;;;;5073120;28;20204;-81
2020/12/04 07:46:28;;;;;;;5.50;1.95;;;9.50;99.90;;;;;;5073195;28;20556;-81
2020/12/04 07:49:02;;;;;;;2.70;2.25;;;9.50;99.90;;;;;;5073155;28;20194;-82
2020/12/04 07:51:29;;;;;;;2.00;1.80;;;9.60;99.90;;;;;;5073127;28;20194;-81
2020/12/04 07:53:57;;;;;;;2.50;2.30;;;9.70;99.90;;;;;;5073052;28;20225;-80
2020/12/04 07:56:25;;;;;;;1.98;1.88;;;9.60;99.90;;;;;;5073142;28;20200;-81
2020/12/04 07:58:58;;;;;;;2.00;1.90;;;9.70;99.90;;;;;;5073065;28;20213;-82
2020/12/04 08:01:26;;;;;;;2.28;2.08;;;9.80;99.90;;;;;;5074167;28;20205;-81
2020/12/04 08:03:52;;;;;;;1.65;1.50;;;9.70;99.90;;;;;;5077150;28;20197;-81
2020/12/04 08:06:23;;;;;;;2.55;2.35;;;9.70;99.90;;;;;;5077243;28;20194;-80
2020/12/04 08:09:10;;;;;;;2.70;1.40;;;9.60;99.90;;;;;;5077166;28;20226;-80
2020/12/04 08:11:38;;;;;;;1.60;1.38;;;9.80;99.90;;;;;;5076981;28;20213;-80
2020/12/04 08:14:05;;;;;;;1.42;1.33;;;9.90;99.90;;;;;;5076977;28;20198;-80
2020/12/04 08:16:33;;;;;;;1.60;1.42;;;9.90;99.90;;;;;;5076808;28;20309;-80
2020/12/04 08:19:11;;;;;;;1.83;1.50;;;10.00;99.90;;;;;;5076935;28;20197;-80
2020/12/04 08:21:52;;;;;;;2.00;1.70;;;10.00;99.90;;;;;;5076953;28;20276;-80
2020/12/04 08:24:23;;;;;;;1.70;1.48;;;10.10;99.90;;;;;;5076476;28;20664;-80
2020/12/04 08:27:04;;;;;;;1.70;1.60;;;10.10;99.90;;;;;;5076717;28;20197;-80
2020/12/04 08:29:31;;;;;;;1.38;1.27;;;10.10;99.90;;;;;;5076655;28;20281;-80
2020/12/04 08:32:19;;;;;;;1.92;1.60;;;10.00;99.90;;;;;;5076563;28;20208;-80
2020/12/04 08:34:46;;;;;;;1.73;1.60;;;10.10;99.90;;;;;;5076610;28;20198;-80
2020/12/04 08:37:13;;;;;;;1.77;1.50;;;9.90;99.90;;;;;;5076352;28;20210;-80
2020/12/04 08:39:45;;;;;;;2.20;1.40;;;9.90;99.90;;;;;;5076558;28;20533;-80
2020/12/04 08:42:20;;;;;;;1.85;1.75;;;9.80;99.90;;;;;;5076383;28;20661;-79
2020/12/04 08:44:57;;;;;;;2.42;1.77;;;9.80;99.90;;;;;;5076270;28;20228;-78
2020/12/04 08:47:30;;;;;;;1.40;1.30;;;9.90;99.90;;;;;;5076277;28;20549;-78
2020/12/04 08:49:57;;;;;;;1.40;1.27;;;10.10;99.90;;;;;;5076293;28;20228;-78
2020/12/04 08:52:41;;;;;;;2.30;1.55;;;10.20;99.90;;;;;;5076261;28;20201;-78
2020/12/04 08:55:09;;;;;;;2.63;1.60;;;10.20;99.90;;;;;;5076542;28;20222;-78
2020/12/04 08:57:35;;;;;;;1.58;1.45;;;10.40;99.90;;;;;;5076072;28;20565;-78
2020/12/04 09:00:02;;;;;;;1.50;1.30;;;10.50;99.90;;;;;;5076043;28;20194;-78
2020/12/04 09:02:29;;;;;;;4.28;1.52;;;10.60;99.90;;;;;;5075971;28;20210;-78
2020/12/04 09:04:55;;;;;;;1.55;1.45;;;10.70;99.90;;;;;;5076062;28;20196;-78
2020/12/04 09:07:21;;;;;;;1.75;1.40;;;10.70;99.90;;;;;;5075947;28;20221;-78
2020/12/04 09:09:48;;;;;;;1.30;1.17;;;10.80;99.90;;;;;;5073333;28;20191;-78
2020/12/04 09:12:14;;;;;;;1.52;1.42;;;10.70;99.90;;;;;;5073001;28;20244;-78
2020/12/04 09:14:40;;;;;;;2.90;1.42;;;10.80;99.90;;;;;;5074774;28;20633;-78
2020/12/04 09:17:07;;;;;;;1.30;1.10;;;10.90;99.90;;;;;;5075580;28;20230;-81
2020/12/04 09:19:34;;;;;;;1.40;1.25;;;10.80;99.90;;;;;;5075882;28;20599;-81
2020/12/04 09:22:00;;;;;;;1.58;1.20;;;10.60;99.90;;;;;;5075907;28;20208;-81
2020/12/04 09:24:26;;;;;;;2.65;1.15;;;10.50;99.90;;;;;;5075822;28;20545;-81
2020/12/04 09:26:54;;;;;;;1.50;1.17;;;10.70;99.90;;;;;;5075534;28;20284;-81
2020/12/04 09:29:20;;;;;;;1.20;1.10;;;10.80;99.90;;;;;;5075462;28;20194;-81
2020/12/04 09:31:46;;;;;;;1.30;1.10;;;10.80;99.90;;;;;;5075556;28;20201;-81
2020/12/04 09:34:13;;;;;;;1.33;1.20;;;10.80;99.90;;;;;;5075602;28;20198;-81
2020/12/04 09:36:40;;;;;;;1.20;1.10;;;10.90;99.90;;;;;;5075408;28;20190;-81
2020/12/04 09:39:06;;;;;;;6.05;1.80;;;10.90;99.90;;;;;;5075490;28;20224;-81
2020/12/04 09:41:32;;;;;;;1.33;1.23;;;10.80;99.90;;;;;;5075277;28;20198;-81
2020/12/04 09:43:59;;;;;;;1.65;1.40;;;10.70;99.90;;;;;;5075186;28;20806;-81
2020/12/04 09:46:25;;;;;;;2.13;1.58;;;10.70;99.90;;;;;;5075318;28;20210;-81
2020/12/04 09:48:51;;;;;;;1.90;1.30;;;10.80;99.90;;;;;;5075228;28;20226;-80
2020/12/04 09:51:17;;;;;;;1.40;1.30;;;10.80;99.90;;;;;;5075336;28;20198;-81
2020/12/04 09:53:45;;;;;;;1.88;1.58;;;10.80;99.90;;;;;;5075090;28;20637;-81
2020/12/04 09:56:11;;;;;;;1.40;1.30;;;10.80;99.90;;;;;;5074934;28;20208;-80
2020/12/04 09:58:37;;;;;;;1.50;1.30;;;10.90;99.90;;;;;;5075242;28;20198;-81
2020/12/04 10:01:03;;;;;;;2.30;1.55;;;10.90;99.90;;;;;;5075110;28;20194;-81
2020/12/04 10:03:30;;;;;;;1.70;1.48;;;10.80;99.90;;;;;;5075152;28;20201;-80
2020/12/04 10:05:56;;;;;;;1.42;1.33;;;10.90;99.90;;;;;;5074898;28;20709;-80
2020/12/04 10:08:22;;;;;;;1.40;1.30;;;11.10;99.90;;;;;;5074827;28;20226;-81
2020/12/04 10:10:49;;;;;;;1.80;1.40;;;11.20;99.90;;;;;;5074788;28;20190;-80
2020/12/04 10:13:15;;;;;;;2.72;1.60;;;11.30;99.90;;;;;;5074755;28;20554;-81
2020/12/04 10:15:42;;;;;;;1.40;1.17;;;11.30;99.90;;;;;;5074470;28;20214;-80
2020/12/04 10:18:10;;;;;;;1.38;1.27;;;11.10;99.90;;;;;;5074660;28;20190;-81
2020/12/04 10:20:37;;;;;;;1.40;1.10;;;11.20;99.90;;;;;;5074576;28;20195;-81
2020/12/04 10:23:03;;;;;;;1.45;1.20;;;11.10;99.90;;;;;;5074501;28;20289;-81
2020/12/04 10:25:29;;;;;;;1.80;1.40;;;11.10;99.90;;;;;;5073456;28;20551;-80
2020/12/04 10:27:56;;;;;;;1.40;1.25;;;11.00;99.90;;;;;;5074432;28;20232;-80
2020/12/04 10:30:22;;;;;;;1.63;1.30;;;11.00;99.90;;;;;;5074446;28;20589;-80
2020/12/04 10:32:49;;;;;;;1.45;1.25;;;11.10;99.90;;;;;;5074439;28;20198;-80
2020/12/04 10:35:15;;;;;;;1.30;1.10;;;10.90;99.90;;;;;;5074229;28;20194;-80
2020/12/04 10:37:41;;;;;;;1.73;1.30;;;11.00;99.90;;;;;;5074077;28;20200;-80
2020/12/04 10:40:08;;;;;;;1.88;1.58;;;11.10;99.90;;;;;;5074271;28;20649;-80
2020/12/04 10:42:34;;;;;;;1.42;1.00;;;11.30;99.90;;;;;;5074192;28;20645;-81
2020/12/04 10:45:01;;;;;;;2.70;1.42;;;11.50;99.90;;;;;;5073889;28;20228;-80
2020/12/04 10:47:27;;;;;;;1.20;1.00;;;11.50;99.90;;;;;;5073994;28;20221;-80
2020/12/04 10:49:54;;;;;;;1.20;1.00;;;11.40;99.90;;;;;;5073979;28;20198;-81
2020/12/04 10:52:20;;;;;;;1.40;1.20;;;11.50;99.90;;;;;;5074034;28;20198;-80
2020/12/04 10:54:46;;;;;;;1.40;1.27;;;11.60;99.90;;;;;;5074002;28;20194;-81
2020/12/04 10:57:12;;;;;;;1.42;1.30;;;11.50;99.90;;;;;;5073798;28;20202;-80
2020/12/04 10:59:39;;;;;;;1.50;1.40;;;11.40;99.90;;;;;;5073842;28;20285;-80
2020/12/04 11:02:11;;;;;;;1.65;1.10;;;11.40;99.90;;;;;;5073918;28;20221;-81
2020/12/04 11:07:22;;;;;;;3.45;1.20;;;11.40;99.90;;;;;;5073755;28;20228;-80
2020/12/04 11:09:48;;;;;;;1.30;1.20;;;11.40;99.90;;;;;;5073751;28;20197;-80
2020/12/04 11:12:14;;;;;;;1.50;1.00;;;11.50;99.90;;;;;;5073521;28;20198;-80
2020/12/04 11:14:43;;;;;;;1.30;1.08;;;11.50;99.90;;;;;;5073803;28;20307;-81
2020/12/04 11:17:10;;;;;;;1.55;0.90;;;11.50;99.90;;;;;;5073520;28;20222;-80
2020/12/04 11:19:37;;;;;;;3.28;1.13;;;11.30;99.90;;;;;;5073663;28;20202;-81
2020/12/04 11:22:03;;;;;;;1.50;1.20;;;11.30;99.90;;;;;;5073685;28;20669;-80
2020/12/04 11:24:30;;;;;;;1.35;1.00;;;11.40;99.90;;;;;;5073545;28;20198;-80
2020/12/04 11:26:56;;;;;;;3.42;1.15;;;11.40;99.90;;;;;;5073385;28;20720;-81
2020/12/04 11:29:22;;;;;;;1.55;1.17;;;11.40;99.90;;;;;;5073297;28;20198;-80
2020/12/04 11:31:48;;;;;;;4.70;1.10;;;11.50;99.90;;;;;;5073139;28;20194;-81
2020/12/04 11:34:15;;;;;;;2.45;1.17;;;11.50;99.90;;;;;;5073434;28;20545;-81
2020/12/04 11:36:42;;;;;;;1.38;1.10;;;11.60;99.90;;;;;;5073079;28;20198;-80
2020/12/04 11:39:08;;;;;;;1.10;0.90;;;11.70;99.90;;;;;;5073309;28;20206;-80
2020/12/04 11:41:34;;;;;;;1.60;0.85;;;11.90;99.90;;;;;;5073253;28;20198;-81
2020/12/04 11:44:00;;;;;;;1.63;1.02;;;11.80;99.90;;;;;;5073049;28;20197;-80
2020/12/04 11:46:27;;;;;;;1.63;1.15;;;11.60;99.90;;;;;;5073275;28;20715;-80
2020/12/04 11:48:54;;;;;;;1.52;1.00;;;11.60;99.90;;;;;;5072993;28;20228;-81
2020/12/04 11:51:22;;;;;;;1.13;0.90;;;11.50;99.90;;;;;;5073147;28;20204;-80
2020/12/04 11:53:49;;;;;;;2.25;1.42;;;11.50;99.90;;;;;;5073045;28;20194;-81
2020/12/04 11:56:17;;;;;;;1.10;0.90;;;11.60;99.90;;;;;;5073197;28;20519;-80
2020/12/04 11:58:43;;;;;;;1.70;1.25;;;11.70;99.90;;;;;;5072258;28;20201;-81
2020/12/04 12:01:09;;;;;;;1.20;1.00;;;11.80;99.90;;;;;;5071222;28;20198;-81
2020/12/04 12:03:36;;;;;;;2.20;1.00;;;11.90;99.90;;;;;;5071287;28;20197;-81
2020/12/04 12:06:02;;;;;;;2.58;1.13;;;11.90;99.90;;;;;;5071161;28;20190;-80
2020/12/04 12:08:29;;;;;;;1.52;1.15;;;11.80;99.90;;;;;;5070953;28;20244;-81
2020/12/04 12:10:56;;;;;;;1.20;0.90;;;11.90;99.90;;;;;;5071220;28;20671;-80
2020/12/04 12:13:22;;;;;;;1.52;1.00;;;12.00;99.90;;;;;;5071259;28;20198;-80
2020/12/04 12:15:48;;;;;;;1.23;1.00;;;12.00;99.90;;;;;;5072726;28;20214;-81
2020/12/04 12:18:15;;;;;;;2.25;1.02;;;12.10;99.90;;;;;;5072891;28;20194;-81
2020/12/04 12:20:41;;;;;;;1.52;1.20;;;12.00;99.90;;;;;;5072911;28;20203;-80
2020/12/04 12:23:07;;;;;;;1.67;1.20;;;12.10;99.90;;;;;;5072892;28;20191;-81
2020/12/04 12:25:34;;;;;;;2.72;1.20;;;12.10;99.90;;;;;;5072763;28;20199;-80
2020/12/04 12:28:01;;;;;;;1.20;1.10;;;12.00;99.90;;;;;;5072805;28;20218;-81
2020/12/04 12:30:28;;;;;;;1.42;1.30;;;12.00;99.90;;;;;;5072932;28;20190;-80
2020/12/04 12:32:54;;;;;;;1.20;1.05;;;11.90;99.90;;;;;;5072606;28;20194;-80
2020/12/04 12:35:21;;;;;;;2.15;1.00;;;11.80;99.90;;;;;;5072680;28;20289;-80
2020/12/04 12:37:48;;;;;;;3.72;0.95;;;11.90;99.90;;;;;;5072538;28;20202;-80
2020/12/04 12:40:14;;;;;;;1.67;1.23;;;11.90;99.90;;;;;;5072741;28;20245;-80
2020/12/04 12:42:42;;;;;;;1.17;1.00;;;12.10;99.90;;;;;;5072558;28;20290;-80
2020/12/04 12:45:09;;;;;;;1.30;1.17;;;12.10;99.90;;;;;;5072246;28;20249;-80
2020/12/04 12:47:36;;;;;;;3.47;1.30;;;12.30;99.90;;;;;;5072514;28;20226;-80
2020/12/04 12:50:04;;;;;;;1.30;1.00;;;12.30;99.90;;;;;;5076281;28;20618;-80
2020/12/04 12:52:30;;;;;;;3.63;1.45;;;12.00;99.90;;;;;;5076348;28;20197;-80
2020/12/04 12:54:56;;;;;;;1.90;1.30;;;12.00;99.90;;;;;;5076200;28;20195;-79
2020/12/04 12:57:23;;;;;;;1.35;1.25;;;12.00;99.90;;;;;;5076150;28;20662;-80